sensor_id;sensor_type;location;lat;lon;timestamp;P1;durP1;ratioP1;P2;durP2;ratioP2
56083;SDS011;41958;52.416;13.428;2023-02-04T00:01:55;1.83;;;0.90;;
56083;SDS011;41958;52.416;13.428;2023-02-04T00:04:20;1.88;;;1.10;;
56083;SDS011;41958;52.416;13.428;2023-02-04T00:07:45;1.30;;;1.10;;
56083;SDS011;41958;52.416;13.428;2023-02-04T00:11:09;1.63;;;0.88;;
56083;SDS011;41958;52.416;13.428;2023-02-04T00:13:40;1.83;;;0.88;;
56083;SDS011;41958;52.416;13.428;2023-02-04T00:16:05;1.60;;;0.98;;
56083;SDS011;41958;52.416;13.428;2023-02-04T00:18:30;2.25;;;1.20;;
56083;SDS011;41958;52.416;13.428;2023-02-04T00:21:42;2.50;;;0.90;;
56083;SDS011;41958;52.416;13.428;2023-02-04T00:24:07;1.80;;;1.00;;
56083;SDS011;41958;52.416;13.428;2023-02-04T00:26:32;1.20;;;0.80;;
56083;SDS011;41958;52.416;13.428;2023-02-04T00:28:57;1.40;;;0.90;;
56083;SDS011;41958;52.416;13.428;2023-02-04T00:32:21;1.10;;;0.82;;
56083;SDS011;41958;52.416;13.428;2023-02-04T00:35:45;2.35;;;1.45;;
56083;SDS011;41958;52.416;13.428;2023-02-04T00:39:09;4.80;;;1.20;;
56083;SDS011;41958;52.416;13.428;2023-02-04T00:42:33;2.90;;;0.90;;
56083;SDS011;41958;52.416;13.428;2023-02-04T00:45:08;1.42;;;0.98;;
56083;SDS011;41958;52.416;13.428;2023-02-04T00:47:34;0.80;;;0.73;;
56083;SDS011;41958;52.416;13.428;2023-02-04T00:49:59;1.45;;;0.73;;
56083;SDS011;41958;52.416;13.428;2023-02-04T00:52:25;2.08;;;1.00;;
56083;SDS011;41958;52.416;13.428;2023-02-04T00:54:50;1.25;;;0.60;;
56083;SDS011;41958;52.416;13.428;2023-02-04T00:57:15;1.10;;;0.75;;
56083;SDS011;41958;52.416;13.428;2023-02-04T00:59:40;1.13;;;0.60;;
56083;SDS011;41958;52.416;13.428;2023-02-04T01:02:05;0.90;;;0.90;;
56083;SDS011;41958;52.416;13.428;2023-02-04T01:05:29;2.20;;;0.85;;
56083;SDS011;41958;52.416;13.428;2023-02-04T01:07:54;4.22;;;0.98;;
56083;SDS011;41958;52.416;13.428;2023-02-04T01:10:20;1.70;;;0.68;;
56083;SDS011;41958;52.416;13.428;2023-02-04T01:12:45;4.60;;;1.13;;
56083;SDS011;41958;52.416;13.428;2023-02-04T01:15:10;1.08;;;0.75;;
56083;SDS011;41958;52.416;13.428;2023-02-04T01:17:52;2.83;;;0.63;;
56083;SDS011;41958;52.416;13.428;2023-02-04T01:20:17;1.52;;;1.20;;
56083;SDS011;41958;52.416;13.428;2023-02-04T01:22:42;0.90;;;0.80;;
56083;SDS011;41958;52.416;13.428;2023-02-04T01:25:08;2.33;;;0.80;;
56083;SDS011;41958;52.416;13.428;2023-02-04T01:27:33;2.10;;;0.98;;
56083;SDS011;41958;52.416;13.428;2023-02-04T01:29:58;3.08;;;0.70;;
56083;SDS011;41958;52.416;13.428;2023-02-04T01:32:24;1.30;;;0.63;;
56083;SDS011;41958;52.416;13.428;2023-02-04T01:34:49;2.85;;;0.77;;
56083;SDS011;41958;52.416;13.428;2023-02-04T01:37:14;2.78;;;0.70;;
56083;SDS011;41958;52.416;13.428;2023-02-04T01:39:40;1.10;;;0.68;;
56083;SDS011;41958;52.416;13.428;2023-02-04T01:42:05;2.08;;;0.70;;
56083;SDS011;41958;52.416;13.428;2023-02-04T01:44:30;2.05;;;0.80;;
56083;SDS011;41958;52.416;13.428;2023-02-04T01:46:55;3.22;;;0.70;;
56083;SDS011;41958;52.416;13.428;2023-02-04T01:49:21;2.42;;;0.80;;
56083;SDS011;41958;52.416;13.428;2023-02-04T01:51:46;1.33;;;0.90;;
56083;SDS011;41958;52.416;13.428;2023-02-04T01:54:12;1.27;;;0.95;;
56083;SDS011;41958;52.416;13.428;2023-02-04T01:56:38;2.13;;;0.63;;
56083;SDS011;41958;52.416;13.428;2023-02-04T01:59:13;1.10;;;0.73;;
56083;SDS011;41958;52.416;13.428;2023-02-04T02:01:41;1.65;;;0.80;;
56083;SDS011;41958;52.416;13.428;2023-02-04T02:05:08;3.30;;;0.70;;
56083;SDS011;41958;52.416;13.428;2023-02-04T02:08:37;1.75;;;0.77;;
56083;SDS011;41958;52.416;13.428;2023-02-04T02:12:01;3.95;;;1.90;;
56083;SDS011;41958;52.416;13.428;2023-02-04T02:15:25;1.30;;;0.80;;
56083;SDS011;41958;52.416;13.428;2023-02-04T02:17:51;2.08;;;0.80;;
56083;SDS011;41958;52.416;13.428;2023-02-04T02:20:19;1.27;;;0.60;;
56083;SDS011;41958;52.416;13.428;2023-02-04T02:25:20;2.67;;;1.00;;
56083;SDS011;41958;52.416;13.428;2023-02-04T02:27:45;2.35;;;0.70;;
56083;SDS011;41958;52.416;13.428;2023-02-04T02:30:11;2.00;;;1.02;;
56083;SDS011;41958;52.416;13.428;2023-02-04T02:32:39;2.22;;;0.80;;
56083;SDS011;41958;52.416;13.428;2023-02-04T02:35:04;3.03;;;0.70;;
56083;SDS011;41958;52.416;13.428;2023-02-04T02:37:30;0.63;;;0.50;;
56083;SDS011;41958;52.416;13.428;2023-02-04T02:39:56;1.90;;;0.68;;
56083;SDS011;41958;52.416;13.428;2023-02-04T02:42:21;2.90;;;0.50;;
56083;SDS011;41958;52.416;13.428;2023-02-04T02:44:47;2.30;;;0.60;;
56083;SDS011;41958;52.416;13.428;2023-02-04T02:47:14;2.17;;;0.80;;
56083;SDS011;41958;52.416;13.428;2023-02-04T02:49:41;1.67;;;0.70;;
56083;SDS011;41958;52.416;13.428;2023-02-04T02:52:10;1.45;;;0.50;;
56083;SDS011;41958;52.416;13.428;2023-02-04T02:54:37;2.33;;;1.05;;
56083;SDS011;41958;52.416;13.428;2023-02-04T02:57:04;1.23;;;0.50;;
56083;SDS011;41958;52.416;13.428;2023-02-04T02:59:36;1.85;;;0.60;;
56083;SDS011;41958;52.416;13.428;2023-02-04T03:03:04;2.45;;;0.70;;
56083;SDS011;41958;52.416;13.428;2023-02-04T03:05:37;0.93;;;0.57;;
56083;SDS011;41958;52.416;13.428;2023-02-04T03:08:05;1.73;;;0.40;;
56083;SDS011;41958;52.416;13.428;2023-02-04T03:10:31;3.17;;;1.45;;
56083;SDS011;41958;52.416;13.428;2023-02-04T03:12:57;0.73;;;0.50;;
56083;SDS011;41958;52.416;13.428;2023-02-04T03:15:23;1.05;;;0.65;;
56083;SDS011;41958;52.416;13.428;2023-02-04T03:17:48;1.38;;;0.60;;
56083;SDS011;41958;52.416;13.428;2023-02-04T03:20:20;5.20;;;0.60;;
56083;SDS011;41958;52.416;13.428;2023-02-04T03:22:45;1.65;;;0.52;;
56083;SDS011;41958;52.416;13.428;2023-02-04T03:25:10;3.80;;;0.70;;
56083;SDS011;41958;52.416;13.428;2023-02-04T03:27:36;0.57;;;0.50;;
56083;SDS011;41958;52.416;13.428;2023-02-04T03:30:02;0.77;;;0.50;;
56083;SDS011;41958;52.416;13.428;2023-02-04T03:32:27;2.58;;;0.60;;
56083;SDS011;41958;52.416;13.428;2023-02-04T03:34:52;3.08;;;0.63;;
56083;SDS011;41958;52.416;13.428;2023-02-04T03:37:18;1.73;;;0.50;;
56083;SDS011;41958;52.416;13.428;2023-02-04T03:39:43;1.23;;;0.50;;
56083;SDS011;41958;52.416;13.428;2023-02-04T03:42:08;2.40;;;0.80;;
56083;SDS011;41958;52.416;13.428;2023-02-04T03:44:33;4.47;;;1.55;;
56083;SDS011;41958;52.416;13.428;2023-02-04T03:46:59;0.95;;;0.50;;
56083;SDS011;41958;52.416;13.428;2023-02-04T03:49:24;4.53;;;0.50;;
56083;SDS011;41958;52.416;13.428;2023-02-04T03:51:50;1.50;;;0.50;;
56083;SDS011;41958;52.416;13.428;2023-02-04T03:54:15;5.47;;;0.60;;
56083;SDS011;41958;52.416;13.428;2023-02-04T03:56:41;1.27;;;0.40;;
56083;SDS011;41958;52.416;13.428;2023-02-04T03:59:06;3.78;;;0.57;;
56083;SDS011;41958;52.416;13.428;2023-02-04T04:01:31;3.17;;;0.55;;
56083;SDS011;41958;52.416;13.428;2023-02-04T04:03:56;0.70;;;0.60;;
56083;SDS011;41958;52.416;13.428;2023-02-04T04:06:22;7.32;;;0.63;;
56083;SDS011;41958;52.416;13.428;2023-02-04T04:08:47;0.77;;;0.45;;
56083;SDS011;41958;52.416;13.428;2023-02-04T04:11:12;4.78;;;0.88;;
56083;SDS011;41958;52.416;13.428;2023-02-04T04:13:38;3.72;;;0.60;;
56083;SDS011;41958;52.416;13.428;2023-02-04T04:16:03;0.60;;;0.32;;
56083;SDS011;41958;52.416;13.428;2023-02-04T04:18:29;4.50;;;0.80;;
56083;SDS011;41958;52.416;13.428;2023-02-04T04:20:56;1.52;;;0.40;;
56083;SDS011;41958;52.416;13.428;2023-02-04T04:23:21;0.52;;;0.43;;
56083;SDS011;41958;52.416;13.428;2023-02-04T04:25:47;2.05;;;0.40;;
56083;SDS011;41958;52.416;13.428;2023-02-04T04:28:12;1.38;;;0.30;;
56083;SDS011;41958;52.416;13.428;2023-02-04T04:30:37;1.58;;;0.50;;
56083;SDS011;41958;52.416;13.428;2023-02-04T04:33:03;0.60;;;0.50;;
56083;SDS011;41958;52.416;13.428;2023-02-04T04:35:28;2.13;;;0.47;;
56083;SDS011;41958;52.416;13.428;2023-02-04T04:37:53;1.77;;;0.40;;
56083;SDS011;41958;52.416;13.428;2023-02-04T04:40:18;5.05;;;0.65;;
56083;SDS011;41958;52.416;13.428;2023-02-04T04:42:44;1.85;;;0.57;;
56083;SDS011;41958;52.416;13.428;2023-02-04T04:45:09;1.92;;;0.60;;
56083;SDS011;41958;52.416;13.428;2023-02-04T04:47:35;2.92;;;0.57;;
56083;SDS011;41958;52.416;13.428;2023-02-04T04:50:00;0.47;;;0.43;;
56083;SDS011;41958;52.416;13.428;2023-02-04T04:52:25;3.33;;;0.50;;
56083;SDS011;41958;52.416;13.428;2023-02-04T04:54:51;3.15;;;0.40;;
56083;SDS011;41958;52.416;13.428;2023-02-04T04:57:16;4.68;;;0.68;;
56083;SDS011;41958;52.416;13.428;2023-02-04T04:59:41;4.35;;;0.70;;
56083;SDS011;41958;52.416;13.428;2023-02-04T05:02:06;2.45;;;0.60;;
56083;SDS011;41958;52.416;13.428;2023-02-04T05:04:32;3.13;;;0.55;;
56083;SDS011;41958;52.416;13.428;2023-02-04T05:06:57;2.10;;;0.45;;
56083;SDS011;41958;52.416;13.428;2023-02-04T05:09:22;3.08;;;0.50;;
56083;SDS011;41958;52.416;13.428;2023-02-04T05:11:47;1.00;;;0.57;;
56083;SDS011;41958;52.416;13.428;2023-02-04T05:14:13;2.90;;;0.60;;
56083;SDS011;41958;52.416;13.428;2023-02-04T05:16:38;1.95;;;0.40;;
56083;SDS011;41958;52.416;13.428;2023-02-04T05:19:03;1.55;;;0.60;;
56083;SDS011;41958;52.416;13.428;2023-02-04T05:21:28;1.60;;;0.60;;
56083;SDS011;41958;52.416;13.428;2023-02-04T05:23:54;3.83;;;0.70;;
56083;SDS011;41958;52.416;13.428;2023-02-04T05:26:19;2.90;;;0.50;;
56083;SDS011;41958;52.416;13.428;2023-02-04T05:28:44;2.15;;;0.60;;
56083;SDS011;41958;52.416;13.428;2023-02-04T05:31:09;1.48;;;0.50;;
56083;SDS011;41958;52.416;13.428;2023-02-04T05:33:35;2.40;;;0.60;;
56083;SDS011;41958;52.416;13.428;2023-02-04T05:36:00;4.70;;;0.70;;
56083;SDS011;41958;52.416;13.428;2023-02-04T05:38:25;2.10;;;0.80;;
56083;SDS011;41958;52.416;13.428;2023-02-04T05:40:50;2.17;;;0.60;;
56083;SDS011;41958;52.416;13.428;2023-02-04T05:43:16;2.65;;;0.50;;
56083;SDS011;41958;52.416;13.428;2023-02-04T05:45:41;1.50;;;0.63;;
56083;SDS011;41958;52.416;13.428;2023-02-04T05:48:06;6.85;;;0.98;;
56083;SDS011;41958;52.416;13.428;2023-02-04T05:50:31;2.53;;;0.75;;
56083;SDS011;41958;52.416;13.428;2023-02-04T05:52:56;3.88;;;0.77;;
56083;SDS011;41958;52.416;13.428;2023-02-04T05:55:22;4.22;;;0.70;;
56083;SDS011;41958;52.416;13.428;2023-02-04T05:57:47;3.50;;;0.88;;
56083;SDS011;41958;52.416;13.428;2023-02-04T06:00:12;2.45;;;1.20;;
56083;SDS011;41958;52.416;13.428;2023-02-04T06:02:38;3.28;;;1.60;;
56083;SDS011;41958;52.416;13.428;2023-02-04T06:05:03;0.95;;;0.50;;
56083;SDS011;41958;52.416;13.428;2023-02-04T06:07:29;1.45;;;0.70;;
56083;SDS011;41958;52.416;13.428;2023-02-04T06:09:54;1.30;;;0.60;;
56083;SDS011;41958;52.416;13.428;2023-02-04T06:12:19;3.90;;;0.60;;
56083;SDS011;41958;52.416;13.428;2023-02-04T06:14:45;4.15;;;0.77;;
56083;SDS011;41958;52.416;13.428;2023-02-04T06:17:10;2.70;;;0.45;;
56083;SDS011;41958;52.416;13.428;2023-02-04T06:19:35;4.07;;;0.82;;
56083;SDS011;41958;52.416;13.428;2023-02-04T06:22:00;4.00;;;0.65;;
56083;SDS011;41958;52.416;13.428;2023-02-04T06:24:26;1.73;;;0.60;;
56083;SDS011;41958;52.416;13.428;2023-02-04T06:26:51;2.70;;;0.88;;
56083;SDS011;41958;52.416;13.428;2023-02-04T06:29:16;5.40;;;0.80;;
56083;SDS011;41958;52.416;13.428;2023-02-04T06:31:41;2.40;;;1.27;;
56083;SDS011;41958;52.416;13.428;2023-02-04T06:34:08;2.83;;;1.00;;
56083;SDS011;41958;52.416;13.428;2023-02-04T06:36:33;4.30;;;1.83;;
56083;SDS011;41958;52.416;13.428;2023-02-04T06:38:58;2.55;;;0.88;;
56083;SDS011;41958;52.416;13.428;2023-02-04T06:41:24;1.88;;;0.60;;
56083;SDS011;41958;52.416;13.428;2023-02-04T06:43:49;4.13;;;0.85;;
56083;SDS011;41958;52.416;13.428;2023-02-04T06:46:14;3.13;;;0.80;;
56083;SDS011;41958;52.416;13.428;2023-02-04T06:48:40;5.97;;;1.05;;
56083;SDS011;41958;52.416;13.428;2023-02-04T06:51:05;4.70;;;1.20;;
56083;SDS011;41958;52.416;13.428;2023-02-04T06:53:30;3.90;;;1.10;;
56083;SDS011;41958;52.416;13.428;2023-02-04T06:55:55;7.65;;;0.90;;
56083;SDS011;41958;52.416;13.428;2023-02-04T06:58:21;3.83;;;1.00;;
56083;SDS011;41958;52.416;13.428;2023-02-04T07:00:46;4.00;;;0.90;;
56083;SDS011;41958;52.416;13.428;2023-02-04T07:03:11;3.88;;;0.90;;
56083;SDS011;41958;52.416;13.428;2023-02-04T07:05:36;3.53;;;1.10;;
56083;SDS011;41958;52.416;13.428;2023-02-04T07:08:02;2.88;;;0.80;;
56083;SDS011;41958;52.416;13.428;2023-02-04T07:10:27;5.85;;;0.90;;
56083;SDS011;41958;52.416;13.428;2023-02-04T07:12:52;5.95;;;1.13;;
56083;SDS011;41958;52.416;13.428;2023-02-04T07:15:17;3.03;;;1.40;;
56083;SDS011;41958;52.416;13.428;2023-02-04T07:17:43;3.22;;;0.90;;
56083;SDS011;41958;52.416;13.428;2023-02-04T07:20:09;1.73;;;0.88;;
56083;SDS011;41958;52.416;13.428;2023-02-04T07:22:34;2.90;;;1.33;;
56083;SDS011;41958;52.416;13.428;2023-02-04T07:25:00;3.05;;;1.17;;
56083;SDS011;41958;52.416;13.428;2023-02-04T07:27:25;4.25;;;1.27;;
56083;SDS011;41958;52.416;13.428;2023-02-04T07:29:50;2.90;;;1.20;;
56083;SDS011;41958;52.416;13.428;2023-02-04T07:32:15;2.80;;;0.88;;
56083;SDS011;41958;52.416;13.428;2023-02-04T07:34:40;2.53;;;1.05;;
56083;SDS011;41958;52.416;13.428;2023-02-04T07:37:06;4.70;;;1.30;;
56083;SDS011;41958;52.416;13.428;2023-02-04T07:39:31;2.22;;;0.93;;
56083;SDS011;41958;52.416;13.428;2023-02-04T07:41:56;4.43;;;0.98;;
56083;SDS011;41958;52.416;13.428;2023-02-04T07:44:21;3.67;;;0.98;;
56083;SDS011;41958;52.416;13.428;2023-02-04T07:46:47;2.95;;;1.05;;
56083;SDS011;41958;52.416;13.428;2023-02-04T07:49:12;3.95;;;1.20;;
56083;SDS011;41958;52.416;13.428;2023-02-04T07:51:37;2.75;;;1.10;;
56083;SDS011;41958;52.416;13.428;2023-02-04T07:54:02;3.95;;;2.08;;
56083;SDS011;41958;52.416;13.428;2023-02-04T07:56:28;1.75;;;1.60;;
56083;SDS011;41958;52.416;13.428;2023-02-04T07:58:53;2.90;;;1.50;;
56083;SDS011;41958;52.416;13.428;2023-02-04T08:01:18;4.53;;;1.10;;
56083;SDS011;41958;52.416;13.428;2023-02-04T08:03:43;1.58;;;1.17;;
56083;SDS011;41958;52.416;13.428;2023-02-04T08:06:09;3.05;;;1.38;;
56083;SDS011;41958;52.416;13.428;2023-02-04T08:08:34;2.60;;;1.27;;
56083;SDS011;41958;52.416;13.428;2023-02-04T08:10:59;2.75;;;1.15;;
56083;SDS011;41958;52.416;13.428;2023-02-04T08:13:25;2.30;;;1.00;;
56083;SDS011;41958;52.416;13.428;2023-02-04T08:15:50;5.55;;;1.15;;
56083;SDS011;41958;52.416;13.428;2023-02-04T08:18:15;3.25;;;0.80;;
56083;SDS011;41958;52.416;13.428;2023-02-04T08:20:41;1.55;;;1.10;;
56083;SDS011;41958;52.416;13.428;2023-02-04T08:23:06;2.20;;;1.05;;
56083;SDS011;41958;52.416;13.428;2023-02-04T08:25:31;1.77;;;0.90;;
56083;SDS011;41958;52.416;13.428;2023-02-04T08:27:56;2.50;;;1.10;;
56083;SDS011;41958;52.416;13.428;2023-02-04T08:30:21;2.42;;;1.00;;
56083;SDS011;41958;52.416;13.428;2023-02-04T08:32:47;2.97;;;1.13;;
56083;SDS011;41958;52.416;13.428;2023-02-04T08:35:12;4.55;;;1.65;;
56083;SDS011;41958;52.416;13.428;2023-02-04T08:37:37;4.50;;;1.50;;
56083;SDS011;41958;52.416;13.428;2023-02-04T08:40:03;2.47;;;1.00;;
56083;SDS011;41958;52.416;13.428;2023-02-04T08:42:28;1.42;;;0.90;;
56083;SDS011;41958;52.416;13.428;2023-02-04T08:44:54;2.13;;;1.30;;
56083;SDS011;41958;52.416;13.428;2023-02-04T08:47:19;3.72;;;0.75;;
56083;SDS011;41958;52.416;13.428;2023-02-04T08:49:44;1.42;;;0.60;;
56083;SDS011;41958;52.416;13.428;2023-02-04T08:52:10;2.83;;;0.80;;
56083;SDS011;41958;52.416;13.428;2023-02-04T08:54:35;2.42;;;0.75;;
56083;SDS011;41958;52.416;13.428;2023-02-04T08:57:00;1.67;;;0.80;;
56083;SDS011;41958;52.416;13.428;2023-02-04T08:59:27;3.00;;;0.98;;
56083;SDS011;41958;52.416;13.428;2023-02-04T09:01:52;1.75;;;1.00;;
56083;SDS011;41958;52.416;13.428;2023-02-04T09:04:18;4.60;;;1.00;;
56083;SDS011;41958;52.416;13.428;2023-02-04T09:06:44;2.67;;;0.60;;
56083;SDS011;41958;52.416;13.428;2023-02-04T09:09:10;4.43;;;0.80;;
56083;SDS011;41958;52.416;13.428;2023-02-04T09:11:35;3.25;;;0.77;;
56083;SDS011;41958;52.416;13.428;2023-02-04T09:14:01;1.10;;;0.60;;
56083;SDS011;41958;52.416;13.428;2023-02-04T09:16:26;1.35;;;0.70;;
56083;SDS011;41958;52.416;13.428;2023-02-04T09:18:51;1.90;;;0.60;;
56083;SDS011;41958;52.416;13.428;2023-02-04T09:21:17;2.30;;;0.55;;
56083;SDS011;41958;52.416;13.428;2023-02-04T09:23:42;2.17;;;0.50;;
56083;SDS011;41958;52.416;13.428;2023-02-04T09:26:08;2.03;;;0.80;;
56083;SDS011;41958;52.416;13.428;2023-02-04T09:28:33;2.80;;;0.57;;
56083;SDS011;41958;52.416;13.428;2023-02-04T09:30:59;3.30;;;0.80;;
56083;SDS011;41958;52.416;13.428;2023-02-04T09:33:24;2.53;;;0.80;;
56083;SDS011;41958;52.416;13.428;2023-02-04T09:35:49;3.13;;;0.88;;
56083;SDS011;41958;52.416;13.428;2023-02-04T09:38:15;3.90;;;0.70;;
56083;SDS011;41958;52.416;13.428;2023-02-04T09:40:51;2.60;;;0.75;;
56083;SDS011;41958;52.416;13.428;2023-02-04T09:43:22;4.13;;;1.08;;
56083;SDS011;41958;52.416;13.428;2023-02-04T09:45:49;2.55;;;0.80;;
56083;SDS011;41958;52.416;13.428;2023-02-04T09:48:15;2.20;;;0.68;;
56083;SDS011;41958;52.416;13.428;2023-02-04T09:50:41;2.30;;;0.80;;
56083;SDS011;41958;52.416;13.428;2023-02-04T09:53:08;2.25;;;0.88;;
56083;SDS011;41958;52.416;13.428;2023-02-04T09:55:39;2.88;;;0.70;;
56083;SDS011;41958;52.416;13.428;2023-02-04T09:58:26;2.35;;;0.60;;
56083;SDS011;41958;52.416;13.428;2023-02-04T10:00:57;3.30;;;0.70;;
56083;SDS011;41958;52.416;13.428;2023-02-04T10:03:25;2.28;;;0.52;;
56083;SDS011;41958;52.416;13.428;2023-02-04T10:05:50;1.67;;;0.60;;
56083;SDS011;41958;52.416;13.428;2023-02-04T10:08:16;3.45;;;0.65;;
56083;SDS011;41958;52.416;13.428;2023-02-04T10:10:44;1.42;;;0.70;;
56083;SDS011;41958;52.416;13.428;2023-02-04T10:13:16;3.10;;;0.70;;
56083;SDS011;41958;52.416;13.428;2023-02-04T10:15:44;2.28;;;0.60;;
56083;SDS011;41958;52.416;13.428;2023-02-04T10:18:12;2.75;;;0.77;;
56083;SDS011;41958;52.416;13.428;2023-02-04T10:20:47;3.33;;;0.60;;
56083;SDS011;41958;52.416;13.428;2023-02-04T10:23:12;1.23;;;0.80;;
56083;SDS011;41958;52.416;13.428;2023-02-04T10:25:38;2.75;;;0.55;;
56083;SDS011;41958;52.416;13.428;2023-02-04T10:28:03;0.73;;;0.50;;
56083;SDS011;41958;52.416;13.428;2023-02-04T10:30:30;2.33;;;0.80;;
56083;SDS011;41958;52.416;13.428;2023-02-04T10:33:11;2.10;;;0.88;;
56083;SDS011;41958;52.416;13.428;2023-02-04T10:35:47;1.50;;;0.43;;
56083;SDS011;41958;52.416;13.428;2023-02-04T10:38:15;3.22;;;0.50;;
56083;SDS011;41958;52.416;13.428;2023-02-04T10:40:41;2.75;;;0.70;;
56083;SDS011;41958;52.416;13.428;2023-02-04T10:43:10;2.60;;;0.50;;
56083;SDS011;41958;52.416;13.428;2023-02-04T10:45:46;2.67;;;0.40;;
56083;SDS011;41958;52.416;13.428;2023-02-04T10:48:18;2.20;;;0.60;;
56083;SDS011;41958;52.416;13.428;2023-02-04T10:50:44;1.52;;;0.45;;
56083;SDS011;41958;52.416;13.428;2023-02-04T10:53:11;2.47;;;0.40;;
56083;SDS011;41958;52.416;13.428;2023-02-04T10:55:59;1.48;;;0.47;;
56083;SDS011;41958;52.416;13.428;2023-02-04T10:58:28;1.05;;;0.40;;
56083;SDS011;41958;52.416;13.428;2023-02-04T11:00:55;0.82;;;0.30;;
56083;SDS011;41958;52.416;13.428;2023-02-04T11:03:21;1.65;;;0.40;;
56083;SDS011;41958;52.416;13.428;2023-02-04T11:05:51;1.92;;;0.43;;
56083;SDS011;41958;52.416;13.428;2023-02-04T11:10:44;1.65;;;0.30;;
56083;SDS011;41958;52.416;13.428;2023-02-04T11:13:19;2.30;;;0.63;;
56083;SDS011;41958;52.416;13.428;2023-02-04T11:18:50;1.02;;;0.30;;
56083;SDS011;41958;52.416;13.428;2023-02-04T11:21:26;2.17;;;0.50;;
56083;SDS011;41958;52.416;13.428;2023-02-04T11:26:37;1.17;;;0.38;;
56083;SDS011;41958;52.416;13.428;2023-02-04T11:36:55;3.40;;;0.73;;
56083;SDS011;41958;52.416;13.428;2023-02-04T11:39:35;0.87;;;0.30;;
56083;SDS011;41958;52.416;13.428;2023-02-04T11:42:14;0.47;;;0.40;;
56083;SDS011;41958;52.416;13.428;2023-02-04T11:45:10;0.35;;;0.25;;
56083;SDS011;41958;52.416;13.428;2023-02-04T11:47:37;1.58;;;0.40;;
56083;SDS011;41958;52.416;13.428;2023-02-04T11:50:10;2.25;;;0.40;;
56083;SDS011;41958;52.416;13.428;2023-02-04T11:52:55;1.90;;;0.50;;
56083;SDS011;41958;52.416;13.428;2023-02-04T11:55:21;1.65;;;0.30;;
56083;SDS011;41958;52.416;13.428;2023-02-04T11:57:50;0.75;;;0.30;;
56083;SDS011;41958;52.416;13.428;2023-02-04T12:00:18;0.73;;;0.40;;
56083;SDS011;41958;52.416;13.428;2023-02-04T12:02:50;8.00;;;0.65;;
56083;SDS011;41958;52.416;13.428;2023-02-04T12:05:20;3.90;;;0.40;;
56083;SDS011;41958;52.416;13.428;2023-02-04T12:07:46;0.98;;;0.50;;
56083;SDS011;41958;52.416;13.428;2023-02-04T12:10:13;2.03;;;0.40;;
56083;SDS011;41958;52.416;13.428;2023-02-04T12:12:43;1.75;;;0.30;;
56083;SDS011;41958;52.416;13.428;2023-02-04T12:15:13;0.45;;;0.28;;
56083;SDS011;41958;52.416;13.428;2023-02-04T12:17:43;0.93;;;0.38;;
56083;SDS011;41958;52.416;13.428;2023-02-04T12:20:09;2.03;;;0.30;;
56083;SDS011;41958;52.416;13.428;2023-02-04T12:22:36;0.25;;;0.20;;
56083;SDS011;41958;52.416;13.428;2023-02-04T12:25:01;2.00;;;0.40;;
56083;SDS011;41958;52.416;13.428;2023-02-04T12:27:27;0.80;;;0.40;;
56083;SDS011;41958;52.416;13.428;2023-02-04T12:29:53;1.23;;;0.40;;
56083;SDS011;41958;52.416;13.428;2023-02-04T12:32:18;1.02;;;0.30;;
56083;SDS011;41958;52.416;13.428;2023-02-04T12:34:43;1.38;;;0.30;;
56083;SDS011;41958;52.416;13.428;2023-02-04T12:37:08;0.40;;;0.20;;
56083;SDS011;41958;52.416;13.428;2023-02-04T12:39:34;1.00;;;0.82;;
56083;SDS011;41958;52.416;13.428;2023-02-04T12:41:59;1.65;;;0.30;;
56083;SDS011;41958;52.416;13.428;2023-02-04T12:44:24;0.85;;;0.20;;
56083;SDS011;41958;52.416;13.428;2023-02-04T12:46:49;0.73;;;0.20;;
56083;SDS011;41958;52.416;13.428;2023-02-04T12:49:18;0.57;;;0.30;;
56083;SDS011;41958;52.416;13.428;2023-02-04T12:51:44;1.20;;;0.47;;
56083;SDS011;41958;52.416;13.428;2023-02-04T12:54:10;0.38;;;0.25;;
56083;SDS011;41958;52.416;13.428;2023-02-04T12:56:35;1.25;;;0.35;;
56083;SDS011;41958;52.416;13.428;2023-02-04T12:59:00;2.55;;;0.40;;
56083;SDS011;41958;52.416;13.428;2023-02-04T13:01:26;1.63;;;0.30;;
56083;SDS011;41958;52.416;13.428;2023-02-04T13:03:51;0.30;;;0.20;;
56083;SDS011;41958;52.416;13.428;2023-02-04T13:06:16;1.00;;;0.25;;
56083;SDS011;41958;52.416;13.428;2023-02-04T13:08:42;0.77;;;0.47;;
56083;SDS011;41958;52.416;13.428;2023-02-04T13:11:07;1.05;;;0.30;;
56083;SDS011;41958;52.416;13.428;2023-02-04T13:13:32;2.15;;;0.40;;
56083;SDS011;41958;52.416;13.428;2023-02-04T13:15:57;0.30;;;0.30;;
56083;SDS011;41958;52.416;13.428;2023-02-04T13:18:23;0.90;;;0.30;;
56083;SDS011;41958;52.416;13.428;2023-02-04T13:20:48;5.28;;;0.55;;
56083;SDS011;41958;52.416;13.428;2023-02-04T13:23:13;2.88;;;0.35;;
56083;SDS011;41958;52.416;13.428;2023-02-04T13:25:38;2.92;;;0.40;;
56083;SDS011;41958;52.416;13.428;2023-02-04T13:28:04;1.00;;;0.22;;
56083;SDS011;41958;52.416;13.428;2023-02-04T13:30:29;0.57;;;0.38;;
56083;SDS011;41958;52.416;13.428;2023-02-04T13:32:55;2.22;;;0.55;;
56083;SDS011;41958;52.416;13.428;2023-02-04T13:35:20;1.80;;;0.40;;
56083;SDS011;41958;52.416;13.428;2023-02-04T13:37:45;1.75;;;0.38;;
56083;SDS011;41958;52.416;13.428;2023-02-04T13:40:11;1.10;;;0.40;;
56083;SDS011;41958;52.416;13.428;2023-02-04T13:42:36;1.20;;;0.40;;
56083;SDS011;41958;52.416;13.428;2023-02-04T13:45:02;0.88;;;0.38;;
56083;SDS011;41958;52.416;13.428;2023-02-04T13:47:27;0.70;;;0.30;;
56083;SDS011;41958;52.416;13.428;2023-02-04T13:49:52;1.45;;;0.40;;
56083;SDS011;41958;52.416;13.428;2023-02-04T13:52:18;1.60;;;0.38;;
56083;SDS011;41958;52.416;13.428;2023-02-04T13:54:44;1.45;;;0.30;;
56083;SDS011;41958;52.416;13.428;2023-02-04T13:57:09;3.92;;;0.40;;
56083;SDS011;41958;52.416;13.428;2023-02-04T13:59:35;1.55;;;0.50;;
56083;SDS011;41958;52.416;13.428;2023-02-04T14:02:00;0.90;;;0.40;;
56083;SDS011;41958;52.416;13.428;2023-02-04T14:04:25;2.78;;;0.45;;
56083;SDS011;41958;52.416;13.428;2023-02-04T14:06:51;0.88;;;0.40;;
56083;SDS011;41958;52.416;13.428;2023-02-04T14:09:16;0.30;;;0.30;;
56083;SDS011;41958;52.416;13.428;2023-02-04T14:11:42;1.75;;;0.30;;
56083;SDS011;41958;52.416;13.428;2023-02-04T14:14:08;3.40;;;0.30;;
56083;SDS011;41958;52.416;13.428;2023-02-04T14:16:33;1.20;;;0.30;;
56083;SDS011;41958;52.416;13.428;2023-02-04T14:18:58;1.02;;;0.40;;
56083;SDS011;41958;52.416;13.428;2023-02-04T14:21:24;1.75;;;0.40;;
56083;SDS011;41958;52.416;13.428;2023-02-04T14:23:49;1.27;;;0.40;;
56083;SDS011;41958;52.416;13.428;2023-02-04T14:26:15;1.70;;;0.43;;
56083;SDS011;41958;52.416;13.428;2023-02-04T14:28:40;0.60;;;0.47;;
56083;SDS011;41958;52.416;13.428;2023-02-04T14:31:05;1.63;;;0.30;;
56083;SDS011;41958;52.416;13.428;2023-02-04T14:33:31;1.02;;;0.40;;
56083;SDS011;41958;52.416;13.428;2023-02-04T14:35:56;1.88;;;0.50;;
56083;SDS011;41958;52.416;13.428;2023-02-04T14:38:22;1.45;;;0.47;;
56083;SDS011;41958;52.416;13.428;2023-02-04T14:40:48;1.75;;;0.40;;
56083;SDS011;41958;52.416;13.428;2023-02-04T14:43:13;0.70;;;0.30;;
56083;SDS011;41958;52.416;13.428;2023-02-04T14:45:38;1.98;;;0.40;;
56083;SDS011;41958;52.416;13.428;2023-02-04T14:48:05;3.22;;;0.60;;
56083;SDS011;41958;52.416;13.428;2023-02-04T14:50:31;0.30;;;0.30;;
56083;SDS011;41958;52.416;13.428;2023-02-04T14:52:56;1.38;;;0.30;;
56083;SDS011;41958;52.416;13.428;2023-02-04T14:55:24;1.45;;;0.30;;
56083;SDS011;41958;52.416;13.428;2023-02-04T14:57:50;0.88;;;0.30;;
56083;SDS011;41958;52.416;13.428;2023-02-04T15:00:16;1.65;;;0.50;;